RJEO(METAR)
06/28 14:00
RJEO 280500Z 30008KT 9999 FEW010 SCT025 18/16 Q1014 RMK A2995=
戻る
トップページへ戻る
IMOC Co,.Ltd.